createdAt,value
2017-06-30T00:00:46.977Z,51.2
2017-06-30T00:01:46.688Z,51.2
2017-06-30T00:02:46.709Z,51.1
2017-06-30T00:03:47.303Z,51.3
2017-06-30T00:04:47.084Z,51.2
2017-06-30T00:05:47.107Z,51.2
2017-06-30T00:06:46.824Z,51.2
2017-06-30T00:07:47.164Z,51.3
2017-06-30T00:08:47.177Z,51.3
2017-06-30T00:09:47.219Z,51.2
2017-06-30T00:10:47.256Z,51.2
2017-06-30T00:11:47.285Z,51.2
2017-06-30T00:12:47.306Z,51.2
2017-06-30T00:13:47.267Z,51.1
2017-06-30T00:14:47.052Z,51.1
2017-06-30T00:15:47.392Z,51.3
2017-06-30T00:16:47.420Z,51.1
2017-06-30T00:17:47.447Z,51.3
2017-06-30T00:18:47.723Z,51.4
2017-06-30T00:19:47.503Z,51.3
2017-06-30T00:20:47.532Z,51.2
2017-06-30T00:21:47.568Z,50.82
2017-06-30T00:22:47.593Z,50.52
2017-06-30T00:23:47.915Z,50.52
2017-06-30T00:24:47.643Z,51.1
2017-06-30T00:25:47.359Z,50.52
2017-06-30T00:26:47.390Z,51.1
2017-06-30T00:27:47.729Z,50.72
2017-06-30T00:28:48.009Z,50.72
2017-06-30T00:29:47.787Z,50.33
2017-06-30T00:30:47.803Z,50.52
2017-06-30T00:31:47.843Z,50.62
2017-06-30T00:32:47.872Z,50.52
2017-06-30T00:33:48.199Z,50.52
2017-06-30T00:34:47.932Z,50.33
2017-06-30T00:35:47.636Z,50.43
2017-06-30T00:36:47.669Z,50.72
2017-06-30T00:37:48.010Z,50.62
2017-06-30T00:38:48.338Z,50.52
2017-06-30T00:39:47.750Z,50.72
2017-06-30T00:40:48.092Z,50.62
2017-06-30T00:41:48.120Z,50.43
2017-06-30T00:42:48.154Z,50.43
2017-06-30T00:43:48.429Z,50.33
2017-06-30T00:44:48.203Z,50.33
2017-06-30T00:45:48.236Z,50.72
2017-06-30T00:46:48.260Z,50.33
2017-06-30T00:47:48.293Z,50.62
2017-06-30T00:48:48.574Z,50.52
2017-06-30T00:49:48.347Z,50.52
2017-06-30T00:50:48.376Z,50.43
2017-06-30T00:51:48.093Z,50.72
2017-06-30T00:52:48.425Z,50.92
2017-06-30T00:53:48.151Z,50.82
2017-06-30T00:54:48.488Z,50.82
2017-06-30T00:55:48.516Z,50.52
2017-06-30T00:56:48.229Z,50.92
2017-06-30T00:57:48.258Z,50.92
2017-06-30T00:58:48.287Z,50.72
2017-06-30T00:59:48.631Z,50.72
2017-06-30T01:00:48.649Z,50.52
2017-06-30T01:01:48.374Z,50.82
2017-06-30T01:02:48.705Z,51.3
2017-06-30T01:03:48.738Z,51.5
2017-06-30T01:04:48.755Z,51.3
2017-06-30T01:05:48.485Z,50.72
2017-06-30T01:06:48.823Z,51.01
2017-06-30T01:07:48.849Z,51.1
2017-06-30T01:08:48.882Z,51.2
2017-06-30T01:09:48.907Z,51.3
2017-06-30T01:10:48.940Z,51.3
2017-06-30T01:11:48.963Z,51.3
2017-06-30T01:12:48.993Z,51.2
2017-06-30T01:13:49.019Z,50.72
2017-06-30T01:14:48.735Z,50.72
2017-06-30T01:15:49.079Z,51.2
2017-06-30T01:16:49.095Z,51.3
2017-06-30T01:17:49.129Z,51.3
2017-06-30T01:18:49.154Z,51.4
2017-06-30T01:19:48.872Z,51.1
2017-06-30T01:20:49.224Z,51.3
2017-06-30T01:21:49.246Z,51.1
2017-06-30T01:22:49.269Z,51.1
2017-06-30T01:23:49.302Z,51.3
2017-06-30T01:24:49.335Z,51.3
2017-06-30T01:25:49.353Z,51.3
2017-06-30T01:26:49.392Z,50.52
2017-06-30T01:27:49.413Z,51.1
2017-06-30T01:28:49.439Z,51.1
2017-06-30T01:29:49.155Z,50.52
2017-06-30T01:30:49.496Z,50.82
2017-06-30T01:31:49.217Z,51.1
2017-06-30T01:32:49.554Z,51.1
2017-06-30T01:33:49.271Z,51.1
2017-06-30T01:34:49.599Z,51.1
2017-06-30T01:35:49.636Z,50.52
2017-06-30T01:36:49.657Z,50.33
2017-06-30T01:37:49.698Z,50.52
2017-06-30T01:38:49.726Z,50.72
2017-06-30T01:39:49.747Z,50.82
2017-06-30T01:40:49.776Z,50.72
2017-06-30T01:41:49.808Z,50.72
2017-06-30T01:42:49.525Z,50.24
2017-06-30T01:43:49.888Z,50.33
2017-06-30T01:44:49.570Z,50.31
2017-06-30T01:45:49.911Z,50.79
2017-06-30T01:46:49.633Z,51.08
2017-06-30T01:47:49.977Z,51.18
2017-06-30T01:48:50.007Z,51.18
2017-06-30T01:49:50.027Z,51.18
2017-06-30T01:50:50.056Z,51.2
2017-06-30T01:51:49.764Z,51.18
2017-06-30T01:52:49.799Z,51.18
2017-06-30T01:53:49.828Z,51.18
2017-06-30T01:54:50.158Z,51.18
2017-06-30T01:55:50.194Z,51.28
2017-06-30T01:56:49.910Z,51.08
2017-06-30T01:57:49.938Z,51.28
2017-06-30T01:58:50.282Z,51.18
2017-06-30T01:59:50.295Z,51.08
2017-06-30T02:00:50.338Z,51.08
2017-06-30T02:01:50.365Z,50.98
2017-06-30T02:02:50.384Z,51.18
2017-06-30T02:03:50.426Z,51.28
2017-06-30T02:04:50.694Z,51.28
2017-06-30T02:05:50.477Z,51.08
2017-06-30T02:06:50.500Z,51.18
2017-06-30T02:07:50.530Z,51.08
2017-06-30T02:08:50.559Z,51.28
2017-06-30T02:09:50.888Z,51.28
2017-06-30T02:10:50.304Z,51.08
2017-06-30T02:11:50.637Z,51.08
2017-06-30T02:12:50.677Z,50.98
2017-06-30T02:13:50.704Z,51.28
2017-06-30T02:14:50.975Z,51.08
2017-06-30T02:15:50.754Z,51.18
2017-06-30T02:16:50.785Z,51.28
2017-06-30T02:17:50.814Z,51.28
2017-06-30T02:18:50.838Z,51.18
2017-06-30T02:19:51.124Z,51.18
2017-06-30T02:20:50.579Z,51.37
2017-06-30T02:21:50.917Z,51.28
2017-06-30T02:22:50.950Z,50.89
2017-06-30T02:23:50.665Z,51.08
2017-06-30T02:24:51.259Z,51.66
2017-06-30T02:25:51.028Z,51.56
2017-06-30T02:26:50.742Z,51.08
2017-06-30T02:27:51.094Z,51.47
2017-06-30T02:28:50.809Z,51.56
2017-06-30T02:29:51.429Z,51.76
2017-06-30T02:30:50.860Z,51.37
2017-06-30T02:31:51.201Z,51.76
2017-06-30T02:32:51.233Z,51.28
2017-06-30T02:33:51.255Z,51.47
2017-06-30T02:34:51.522Z,51.66
2017-06-30T02:35:51.312Z,51.47
2017-06-30T02:36:51.033Z,51.08
2017-06-30T02:37:51.369Z,51.56
2017-06-30T02:38:51.391Z,51.66
2017-06-30T02:39:51.423Z,51.37
2017-06-30T02:40:51.453Z,51.28
2017-06-30T02:41:51.477Z,51.47
2017-06-30T02:42:51.193Z,51.56
2017-06-30T02:43:51.534Z,51.47
2017-06-30T02:44:51.567Z,51.66
2017-06-30T02:45:51.592Z,51.56
2017-06-30T02:46:51.622Z,51.47
2017-06-30T02:47:51.650Z,51.28
2017-06-30T02:48:51.679Z,51.47
2017-06-30T02:49:51.695Z,51.08
2017-06-30T02:50:51.420Z,51.08
2017-06-30T02:51:51.757Z,50.98
2017-06-30T02:52:51.472Z,50.89
2017-06-30T02:53:51.807Z,51.08
2017-06-30T02:54:51.839Z,51.47
2017-06-30T02:55:51.553Z,51.56
2017-06-30T02:56:51.892Z,51.47
2017-06-30T02:57:51.925Z,51.18
2017-06-30T02:58:51.954Z,51.28
2017-06-30T02:59:51.979Z,50.89
2017-06-30T03:00:52.008Z,51.08
2017-06-30T03:01:52.037Z,51.08
2017-06-30T03:02:52.058Z,51.56
2017-06-30T03:03:52.095Z,51.56
2017-06-30T03:04:52.114Z,51.56
2017-06-30T03:05:51.836Z,51.37
2017-06-30T03:06:52.168Z,51.56
2017-06-30T03:07:52.197Z,51.47
2017-06-30T03:08:52.279Z,51.28
2017-06-30T03:09:52.260Z,51.56
2017-06-30T03:10:52.289Z,51.18
2017-06-30T03:11:52.001Z,50.98
2017-06-30T03:12:52.030Z,51.47
2017-06-30T03:13:52.361Z,51.54
2017-06-30T03:14:52.400Z,51.47
2017-06-30T03:15:52.106Z,51.37
2017-06-30T03:16:52.450Z,51.28
2017-06-30T03:17:52.484Z,51.37
2017-06-30T03:18:52.502Z,51.47
2017-06-30T03:19:52.531Z,51.47
2017-06-30T03:20:52.568Z,51.47
2017-06-30T03:21:52.277Z,51.76
2017-06-30T03:22:52.625Z,51.66
2017-06-30T03:23:52.338Z,51.47
2017-06-30T03:24:52.680Z,51.37
2017-06-30T03:25:52.695Z,51.56
2017-06-30T03:26:52.720Z,51.08
2017-06-30T03:27:52.758Z,50.89
2017-06-30T03:28:52.786Z,50.98
2017-06-30T03:29:52.827Z,51.18
2017-06-30T03:30:52.846Z,51.18
2017-06-30T03:31:52.860Z,50.98
2017-06-30T03:32:52.898Z,50.89
2017-06-30T03:33:52.927Z,50.98
2017-06-30T03:34:52.952Z,50.98
2017-06-30T03:35:52.980Z,51.28
2017-06-30T03:36:53.010Z,51.18
2017-06-30T03:37:53.026Z,51.08
2017-06-30T03:38:53.066Z,50.89
2017-06-30T03:39:53.090Z,50.89
2017-06-30T03:40:53.112Z,50.89
2017-06-30T03:41:53.144Z,51.18
2017-06-30T03:42:53.216Z,51.18
2017-06-30T03:43:53.199Z,51.28
2017-06-30T03:44:53.223Z,50.89
2017-06-30T03:45:52.938Z,51.08
2017-06-30T03:46:52.976Z,51.28
2017-06-30T03:47:53.310Z,51.18
2017-06-30T03:48:53.334Z,51.28
2017-06-30T03:49:53.369Z,51.08
2017-06-30T03:50:53.080Z,50.89
2017-06-30T03:51:53.113Z,50.89
2017-06-30T03:52:53.452Z,51.08
2017-06-30T03:53:53.477Z,50.89
2017-06-30T03:54:53.508Z,50.89
2017-06-30T03:55:53.220Z,51.08
2017-06-30T03:56:53.245Z,51.08
2017-06-30T03:57:53.580Z,51.08
2017-06-30T03:58:53.314Z,51.28
2017-06-30T03:59:53.326Z,51.28
2017-06-30T04:00:53.667Z,51.08
2017-06-30T04:01:53.700Z,51.08
2017-06-30T04:02:53.733Z,51.18
2017-06-30T04:03:53.757Z,51.18
2017-06-30T04:04:53.782Z,51.18
2017-06-30T04:05:54.059Z,51.25
2017-06-30T04:06:53.836Z,51.18
2017-06-30T04:07:53.865Z,51.18
2017-06-30T04:08:53.885Z,51.25
2017-06-30T04:09:53.922Z,51.18
2017-06-30T04:10:53.887Z,51.06
2017-06-30T04:11:53.976Z,51.18
2017-06-30T04:12:54.005Z,51.25
2017-06-30T04:13:53.722Z,51.08
2017-06-30T04:14:54.061Z,51.25
2017-06-30T04:15:54.343Z,50.96
2017-06-30T04:16:54.120Z,50.96
2017-06-30T04:17:54.149Z,51.06
2017-06-30T04:18:54.173Z,50.86
2017-06-30T04:19:54.194Z,51.25
2017-06-30T04:20:54.471Z,51.18
2017-06-30T04:21:54.244Z,51.25
2017-06-30T04:22:54.281Z,51.18
2017-06-30T04:23:54.313Z,51.06
2017-06-30T04:24:54.338Z,51.25
2017-06-30T04:25:54.364Z,51.15
2017-06-30T04:26:54.393Z,51.15
2017-06-30T04:27:54.413Z,51.15
2017-06-30T04:28:54.441Z,51.15
2017-06-30T04:29:54.197Z,51.44
2017-06-30T04:30:54.503Z,51.15
2017-06-30T04:31:54.224Z,51.15
2017-06-30T04:32:54.561Z,51.25
2017-06-30T04:33:54.274Z,51.15
2017-06-30T04:34:54.303Z,51.15
2017-06-30T04:35:54.639Z,51.15
2017-06-30T04:36:54.676Z,51.25
2017-06-30T04:37:54.697Z,51.15
2017-06-30T04:38:54.725Z,50.86
2017-06-30T04:39:54.746Z,51.06
2017-06-30T04:40:54.471Z,51.25
2017-06-30T04:41:54.500Z,51.25
2017-06-30T04:42:54.529Z,51.06
2017-06-30T04:43:54.853Z,50.96
2017-06-30T04:44:54.577Z,50.86
2017-06-30T04:45:54.607Z,51.06
2017-06-30T04:46:54.947Z,51.64
2017-06-30T04:47:54.968Z,51.44
2017-06-30T04:48:55.005Z,51.06
2017-06-30T04:49:55.021Z,51.73
2017-06-30T04:50:55.057Z,51.35
2017-06-30T04:51:54.769Z,51.06
2017-06-30T04:52:55.105Z,51.44
2017-06-30T04:53:55.134Z,51.54
2017-06-30T04:54:55.169Z,51.54
2017-06-30T04:55:55.192Z,51.54
2017-06-30T04:56:54.904Z,51.35
2017-06-30T04:57:54.936Z,51.54
2017-06-30T04:58:55.282Z,51.25
2017-06-30T04:59:55.342Z,51.25
2017-06-30T05:00:55.340Z,51.35
2017-06-30T05:01:55.363Z,51.25
2017-06-30T05:02:55.392Z,51.44
2017-06-30T05:03:55.102Z,51.25
2017-06-30T05:04:55.441Z,51.44
2017-06-30T05:05:55.475Z,51.35
2017-06-30T05:06:55.500Z,51.44
2017-06-30T05:07:55.212Z,51.35
2017-06-30T05:08:55.555Z,51.35
2017-06-30T05:09:55.581Z,51.35
2017-06-30T05:10:55.612Z,51.35
2017-06-30T05:11:55.639Z,51.54
2017-06-30T05:12:55.668Z,51.35
2017-06-30T05:13:55.689Z,51.25
2017-06-30T05:14:55.713Z,51.44
2017-06-30T05:15:55.747Z,51.54
2017-06-30T05:16:55.460Z,51.35
2017-06-30T05:17:55.804Z,51.44
2017-06-30T05:18:55.833Z,51.25
2017-06-30T05:19:55.543Z,51.64
2017-06-30T05:20:55.879Z,51.35
2017-06-30T05:21:55.916Z,51.35
2017-06-30T05:22:55.945Z,51.25
2017-06-30T05:23:55.660Z,51.64
2017-06-30T05:24:55.686Z,51.64
2017-06-30T05:25:56.027Z,51.44
2017-06-30T05:26:56.043Z,51.73
2017-06-30T05:27:55.761Z,51.35
2017-06-30T05:28:55.794Z,51.25
2017-06-30T05:29:55.826Z,51.35
2017-06-30T05:30:56.149Z,50.86
2017-06-30T05:31:56.186Z,51.06
2017-06-30T05:32:55.904Z,51.15
2017-06-30T05:33:55.932Z,51.06
2017-06-30T05:34:56.265Z,51.25
2017-06-30T05:35:56.302Z,51.25
2017-06-30T05:36:56.572Z,51.15
2017-06-30T05:37:56.351Z,51.25
2017-06-30T05:38:56.069Z,50.86
2017-06-30T05:39:56.410Z,50.96
2017-06-30T05:40:56.115Z,51.25
2017-06-30T05:41:56.719Z,51.15
2017-06-30T05:42:56.497Z,51.15
2017-06-30T05:43:56.522Z,51.25
2017-06-30T05:44:56.549Z,51.15
2017-06-30T05:45:56.575Z,50.86
2017-06-30T05:46:56.855Z,51.44
2017-06-30T05:47:56.630Z,51.06
2017-06-30T05:48:56.661Z,51.06
2017-06-30T05:49:56.374Z,51.25
2017-06-30T05:50:56.719Z,51.44
2017-06-30T05:51:56.988Z,50.18
2017-06-30T05:52:56.794Z,50.57
2017-06-30T05:53:56.796Z,50.76
2017-06-30T05:54:56.514Z,50.76
2017-06-30T05:55:56.845Z,51.44
2017-06-30T05:56:57.124Z,50.76
2017-06-30T05:57:56.592Z,50.57
2017-06-30T05:58:56.929Z,50.48
2017-06-30T05:59:56.962Z,50.18
2017-06-30T06:00:56.678Z,50.38
2017-06-30T06:01:57.310Z,50.28
2017-06-30T06:02:57.049Z,50.48
2017-06-30T06:03:57.081Z,50.79
2017-06-30T06:04:57.101Z,50.6
2017-06-30T06:05:57.130Z,50.6
2017-06-30T06:06:57.407Z,50.38
2017-06-30T06:07:56.868Z,50.6
2017-06-30T06:08:57.211Z,50.6
2017-06-30T06:09:56.933Z,50.6
2017-06-30T06:10:57.270Z,50.76
2017-06-30T06:11:57.538Z,50.21
2017-06-30T06:12:57.324Z,50.31
2017-06-30T06:13:57.353Z,50.4
2017-06-30T06:14:57.370Z,50.21
2017-06-30T06:15:57.398Z,49.92
2017-06-30T06:16:57.435Z,50.5
2017-06-30T06:17:57.156Z,50.21
2017-06-30T06:18:57.484Z,50.12
2017-06-30T06:19:57.210Z,50.31
2017-06-30T06:20:57.546Z,50.02
2017-06-30T06:21:57.268Z,50.4
2017-06-30T06:22:57.288Z,50.6
2017-06-30T06:23:57.633Z,50.6
2017-06-30T06:24:57.342Z,50.02
2017-06-30T06:25:57.682Z,49.82
2017-06-30T06:26:57.706Z,50.02
2017-06-30T06:27:57.739Z,49.82
2017-06-30T06:28:57.773Z,49.73
2017-06-30T06:29:57.801Z,50.02
2017-06-30T06:30:57.826Z,50.02
2017-06-30T06:31:57.852Z,50.21
2017-06-30T06:32:57.880Z,50.02
2017-06-30T06:33:57.599Z,49.92
2017-06-30T06:34:57.933Z,50.12
2017-06-30T06:35:57.965Z,50.12
2017-06-30T06:36:57.678Z,49.82
2017-06-30T06:37:58.016Z,50.02
2017-06-30T06:38:58.044Z,49.92
2017-06-30T06:39:58.070Z,49.44
2017-06-30T06:40:58.095Z,49.73
2017-06-30T06:41:58.133Z,49.73
2017-06-30T06:42:58.160Z,49.92
2017-06-30T06:43:58.180Z,49.73
2017-06-30T06:44:58.212Z,49.92
2017-06-30T06:45:58.236Z,49.34
2017-06-30T06:46:58.266Z,49.44
2017-06-30T06:47:58.300Z,49.63
2017-06-30T06:48:58.324Z,49.63
2017-06-30T06:49:58.038Z,49.73
2017-06-30T06:50:58.378Z,49.54
2017-06-30T06:51:58.416Z,49.73
2017-06-30T06:52:58.435Z,49.44
2017-06-30T06:53:58.461Z,49.82
2017-06-30T06:54:58.495Z,49.73
2017-06-30T06:55:58.519Z,49.63
2017-06-30T06:56:58.235Z,49.15
2017-06-30T06:57:58.579Z,49.24
2017-06-30T06:58:58.289Z,49.63
2017-06-30T06:59:58.628Z,49.24
2017-06-30T07:00:58.342Z,49.44
2017-06-30T07:01:58.696Z,49.34
2017-06-30T07:02:58.715Z,49.24
2017-06-30T07:03:58.748Z,49.34
2017-06-30T07:04:58.453Z,49.24
2017-06-30T07:05:58.794Z,49.24
2017-06-30T07:06:58.811Z,49.15
2017-06-30T07:07:58.860Z,49.34
2017-06-30T07:08:58.876Z,49.44
2017-06-30T07:09:58.911Z,49.15
2017-06-30T07:10:58.930Z,49.07
2017-06-30T07:11:58.972Z,49.05
2017-06-30T07:12:58.988Z,48.95
2017-06-30T07:13:58.708Z,49.05
2017-06-30T07:14:59.048Z,48.76
2017-06-30T07:15:59.078Z,48.79
2017-06-30T07:16:59.106Z,49.05
2017-06-30T07:17:59.383Z,48.86
2017-06-30T07:18:59.164Z,49.46
2017-06-30T07:19:58.878Z,49.46
2017-06-30T07:20:59.218Z,49.37
2017-06-30T07:21:59.251Z,49.07
2017-06-30T07:22:59.207Z,49.75
2017-06-30T07:23:59.295Z,49.07
2017-06-30T07:24:59.065Z,49.75
2017-06-30T07:25:59.354Z,49.85
2017-06-30T07:26:59.392Z,49.95
2017-06-30T07:27:59.672Z,49.85
2017-06-30T07:28:59.446Z,49.37
2017-06-30T07:29:59.463Z,49.85
2017-06-30T07:30:59.485Z,49.17
2017-06-30T07:31:59.215Z,49.17
2017-06-30T07:32:59.495Z,49.56
2017-06-30T07:33:59.572Z,49.46
2017-06-30T07:34:59.607Z,49.27
2017-06-30T07:35:59.625Z,49.46
2017-06-30T07:36:59.666Z,49.85
2017-06-30T07:37:59.624Z,49.46
2017-06-30T07:38:59.403Z,49.65
2017-06-30T07:39:59.436Z,49.17
2017-06-30T07:40:59.462Z,49.27
2017-06-30T07:41:59.807Z,49.17
2017-06-30T07:42:59.774Z,49.29
2017-06-30T07:43:59.865Z,49.37
2017-06-30T07:44:59.892Z,49.29
2017-06-30T07:45:59.922Z,48.97
2017-06-30T07:46:59.942Z,48.61
2017-06-30T07:47:59.914Z,49.1
2017-06-30T07:49:00.007Z,48.81
2017-06-30T07:50:00.029Z,48.61
2017-06-30T07:51:00.061Z,49.39
2017-06-30T07:52:00.090Z,49.1
2017-06-30T07:53:00.369Z,48.9
2017-06-30T07:54:00.147Z,49
2017-06-30T07:54:59.855Z,48.71
2017-06-30T07:55:59.893Z,48.71
2017-06-30T07:56:59.911Z,48.22
2017-06-30T07:58:00.508Z,48.13
2017-06-30T07:59:00.285Z,47.94
2017-06-30T08:00:00.317Z,48.52
2017-06-30T08:01:00.026Z,48.69
2017-06-30T08:02:00.063Z,48.42
2017-06-30T08:03:00.087Z,47.64
2017-06-30T08:04:00.417Z,48.03
2017-06-30T08:05:00.449Z,47.84
2017-06-30T08:06:00.165Z,47.74
2017-06-30T08:07:00.194Z,47.55
2017-06-30T08:08:00.538Z,47.94
2017-06-30T08:09:00.572Z,48.13
2017-06-30T08:10:00.601Z,48.03
2017-06-30T08:11:00.310Z,48.32
2017-06-30T08:12:00.702Z,48.22
2017-06-30T08:13:00.363Z,48.32
2017-06-30T08:14:00.715Z,48.22
2017-06-30T08:15:00.425Z,47.94
2017-06-30T08:16:00.454Z,48.32
2017-06-30T08:17:00.483Z,48.52
2017-06-30T08:18:00.502Z,48.03
2017-06-30T08:19:00.839Z,48.13
2017-06-30T08:20:00.561Z,48.22
2017-06-30T08:21:00.909Z,47.45
2017-06-30T08:22:00.931Z,47.55
2017-06-30T08:23:00.957Z,47.55
2017-06-30T08:24:00.983Z,47.55
2017-06-30T08:25:01.018Z,47.74
2017-06-30T08:26:01.041Z,47.36
2017-06-30T08:27:01.089Z,47.64
2017-06-30T08:28:01.102Z,47.36
2017-06-30T08:29:01.127Z,47.74
2017-06-30T08:30:00.859Z,47.55
2017-06-30T08:31:01.197Z,47.84
2017-06-30T08:32:01.213Z,47.55
2017-06-30T08:33:01.246Z,47.64
2017-06-30T08:34:01.274Z,47.84
2017-06-30T08:35:01.309Z,47.64
2017-06-30T08:36:01.333Z,47.55
2017-06-30T08:37:01.359Z,47.55
2017-06-30T08:38:01.383Z,47.64
2017-06-30T08:39:01.099Z,47.55
2017-06-30T08:40:01.445Z,46.6
2017-06-30T08:41:01.465Z,46.67
2017-06-30T08:42:01.506Z,46.6
2017-06-30T08:43:01.214Z,47.09
2017-06-30T08:44:01.556Z,46.67
2017-06-30T08:45:01.585Z,46.8
2017-06-30T08:46:01.617Z,47.38
2017-06-30T08:47:01.641Z,46.58
2017-06-30T08:48:01.669Z,46.77
2017-06-30T08:49:01.700Z,47.45
2017-06-30T08:50:01.729Z,47.64
2017-06-30T08:51:01.752Z,47.45
2017-06-30T08:52:01.782Z,47.47
2017-06-30T08:53:01.507Z,46.12
2017-06-30T08:54:01.532Z,46.51
2017-06-30T08:55:01.868Z,46.6
2017-06-30T08:56:01.898Z,46.7
2017-06-30T08:57:01.931Z,46.7
2017-06-30T08:58:01.956Z,46.12
2017-06-30T08:59:01.987Z,46.22
2017-06-30T09:00:02.020Z,46.22
2017-06-30T09:01:02.048Z,45.64
2017-06-30T09:02:02.064Z,46.31
2017-06-30T09:03:02.093Z,46.31
2017-06-30T09:04:02.128Z,46
2017-06-30T09:05:02.157Z,46.19
2017-06-30T09:06:01.874Z,46.22
2017-06-30T09:07:02.215Z,46.02
2017-06-30T09:08:02.247Z,46.19
2017-06-30T09:09:02.272Z,46.02
2017-06-30T09:10:01.989Z,46.99
2017-06-30T09:11:02.336Z,46.97
2017-06-30T09:12:02.355Z,46.99
2017-06-30T09:13:02.378Z,46.89
2017-06-30T09:14:02.353Z,46.02
2017-06-30T09:15:02.128Z,46.12
2017-06-30T09:16:02.469Z,46.12
2017-06-30T09:17:02.503Z,45.92
2017-06-30T09:18:02.533Z,46.02
2017-06-30T09:19:02.875Z,46.31
2017-06-30T09:20:02.584Z,46.12
2017-06-30T09:21:02.605Z,46.02
2017-06-30T09:22:02.635Z,45.73
2017-06-30T09:23:02.676Z,46.02
2017-06-30T09:24:02.689Z,46.22
2017-06-30T09:25:02.732Z,46.12
2017-06-30T09:26:02.757Z,45.73
2017-06-30T09:27:02.465Z,45.73
2017-06-30T09:28:02.495Z,46.22
2017-06-30T09:29:03.089Z,46.12
2017-06-30T09:30:02.872Z,46.41
2017-06-30T09:31:02.889Z,45.64
2017-06-30T09:32:02.919Z,46.29
2017-06-30T09:33:02.955Z,45.73
2017-06-30T09:34:03.003Z,45.9
2017-06-30T09:35:03.012Z,45.34
2017-06-30T09:36:03.034Z,45.25
2017-06-30T09:37:03.069Z,45.83
2017-06-30T09:38:03.086Z,46.02
2017-06-30T09:39:03.058Z,46.31
2017-06-30T09:40:03.144Z,46.22
2017-06-30T09:41:03.181Z,45.54
2017-06-30T09:42:03.201Z,46.31
2017-06-30T09:43:02.931Z,45.44
2017-06-30T09:44:03.514Z,45.92
2017-06-30T09:45:03.296Z,46.02
2017-06-30T09:46:03.012Z,45.34
2017-06-30T09:47:03.353Z,45.34
2017-06-30T09:48:03.381Z,46.31
2017-06-30T09:49:03.408Z,45.44
2017-06-30T09:50:03.434Z,45.44
2017-06-30T09:51:03.458Z,45.73
2017-06-30T09:52:03.484Z,45.44
2017-06-30T09:53:03.522Z,45.64
2017-06-30T09:54:03.235Z,45.64
2017-06-30T09:55:03.573Z,46.22
2017-06-30T09:56:03.605Z,45.15
2017-06-30T09:57:03.633Z,45.54
2017-06-30T09:58:03.666Z,45.83
2017-06-30T09:59:03.387Z,46.02
2017-06-30T10:00:03.726Z,45.73
2017-06-30T10:01:03.758Z,45.92
2017-06-30T10:02:03.777Z,46.02
2017-06-30T10:03:03.810Z,46.12
2017-06-30T10:04:03.523Z,45.73
2017-06-30T10:05:03.548Z,45.54
2017-06-30T10:06:03.888Z,46.12
2017-06-30T10:07:03.921Z,46.12
2017-06-30T10:08:03.952Z,46.02
2017-06-30T10:09:03.980Z,46.22
2017-06-30T10:10:04.007Z,46.12
2017-06-30T10:11:04.036Z,45.34
2017-06-30T10:12:04.065Z,45.44
2017-06-30T10:13:03.783Z,45.64
2017-06-30T10:14:04.124Z,45.54
2017-06-30T10:15:04.092Z,45.64
2017-06-30T10:16:04.185Z,45.37
2017-06-30T10:17:04.205Z,45.47
2017-06-30T10:18:04.234Z,44.78
2017-06-30T10:19:04.271Z,44.4
2017-06-30T10:20:04.549Z,44.59
2017-06-30T10:21:04.325Z,43.91
2017-06-30T10:22:04.357Z,44.4
2017-06-30T10:23:04.378Z,44.49
2017-06-30T10:24:04.415Z,44.01
2017-06-30T10:25:04.687Z,44.3
2017-06-30T10:26:04.156Z,44.01
2017-06-30T10:27:04.493Z,44.2
2017-06-30T10:28:04.531Z,43.82
2017-06-30T10:29:04.556Z,44.2
2017-06-30T10:30:04.523Z,44.2
2017-06-30T10:31:04.301Z,44.2
2017-06-30T10:32:04.637Z,44.01
2017-06-30T10:33:04.364Z,44.01
2017-06-30T10:34:04.695Z,43.33
2017-06-30T10:35:04.976Z,42.94
2017-06-30T10:36:04.750Z,42.85
2017-06-30T10:37:04.465Z,43.33
2017-06-30T10:38:04.809Z,43.82
2017-06-30T10:39:04.527Z,43.23
2017-06-30T10:40:05.167Z,43.52
2017-06-30T10:41:04.895Z,42.94
2017-06-30T10:42:04.934Z,43.04
2017-06-30T10:43:04.959Z,43.43
2017-06-30T10:44:04.982Z,43.04
2017-06-30T10:45:05.263Z,42.85
2017-06-30T10:46:05.037Z,43.13
2017-06-30T10:47:05.079Z,42.85
2017-06-30T10:48:05.103Z,42.26
2017-06-30T10:49:05.132Z,42.75
2017-06-30T10:50:05.456Z,42.26
2017-06-30T10:51:04.877Z,42.55
2017-06-30T10:52:05.217Z,42.75
2017-06-30T10:53:05.243Z,42.46
2017-06-30T10:54:05.279Z,42.85
2017-06-30T10:55:05.288Z,42.75
2017-06-30T10:56:05.021Z,42.75
2017-06-30T10:57:05.365Z,43.13
2017-06-30T10:58:05.394Z,43.23
2017-06-30T10:59:05.426Z,43.52
2017-06-30T11:00:05.691Z,43.52
2017-06-30T11:01:05.475Z,43.43
2017-06-30T11:02:05.500Z,43.13
2017-06-30T11:03:05.534Z,42.94
2017-06-30T11:04:05.255Z,43.13
2017-06-30T11:05:05.278Z,42.94
2017-06-30T11:06:05.309Z,42.55
2017-06-30T11:07:05.644Z,42.85
2017-06-30T11:08:05.679Z,43.04
2017-06-30T11:09:05.699Z,42.94
2017-06-30T11:10:05.427Z,42.55
2017-06-30T11:11:05.768Z,42.94
2017-06-30T11:12:05.793Z,42.85
2017-06-30T11:13:05.826Z,43.33
2017-06-30T11:14:05.850Z,43.54
2017-06-30T11:15:05.880Z,43.62
2017-06-30T11:16:05.597Z,42.96
2017-06-30T11:17:05.934Z,42.86
2017-06-30T11:18:05.966Z,42.86
2017-06-30T11:19:05.991Z,43.54
2017-06-30T11:20:06.024Z,42.86
2017-06-30T11:21:06.056Z,43.16
2017-06-30T11:22:06.089Z,43.26
2017-06-30T11:23:06.119Z,43.35
2017-06-30T11:24:06.147Z,42.67
2017-06-30T11:25:06.171Z,42.57
2017-06-30T11:26:06.232Z,42.38
2017-06-30T11:27:06.229Z,42.48
2017-06-30T11:28:06.255Z,42.48
2017-06-30T11:29:06.292Z,43.45
2017-06-30T11:30:06.008Z,43.35
2017-06-30T11:31:06.029Z,43.64
2017-06-30T11:32:06.062Z,42.86
2017-06-30T11:33:06.405Z,42.96
2017-06-30T11:34:06.431Z,42.96
2017-06-30T11:35:06.152Z,42.38
2017-06-30T11:36:06.173Z,42.67
2017-06-30T11:37:06.521Z,42.48
2017-06-30T11:38:06.551Z,42.48
2017-06-30T11:39:06.581Z,42.29
2017-06-30T11:40:06.600Z,42.09
2017-06-30T11:41:06.637Z,42.29
2017-06-30T11:42:06.713Z,42.5
2017-06-30T11:43:06.698Z,42.4
2017-06-30T11:44:06.731Z,41.82
2017-06-30T11:45:06.436Z,41.43
2017-06-30T11:46:06.468Z,40.75
2017-06-30T11:47:06.818Z,40.19
2017-06-30T11:48:06.843Z,40.48
2017-06-30T11:49:06.877Z,40.48
2017-06-30T11:50:06.591Z,40.19
2017-06-30T11:51:06.928Z,39.53
2017-06-30T11:52:06.964Z,39.24
2017-06-30T11:53:06.998Z,39.34
2017-06-30T11:54:07.026Z,39.24
2017-06-30T11:55:06.743Z,39.14
2017-06-30T11:56:07.085Z,39.34
2017-06-30T11:57:06.802Z,38.27
2017-06-30T11:58:07.141Z,38.65
2017-06-30T11:59:07.183Z,38.95
2017-06-30T12:00:07.207Z,39.14
2017-06-30T12:01:07.237Z,39.24
2017-06-30T12:02:06.952Z,38.95
2017-06-30T12:03:06.981Z,38.95
2017-06-30T12:04:07.323Z,38.85
2017-06-30T12:05:07.355Z,39.24
2017-06-30T12:06:07.076Z,39.14
2017-06-30T12:07:07.412Z,38.65
2017-06-30T12:08:07.139Z,38.56
2017-06-30T12:09:07.171Z,39.14
2017-06-30T12:10:07.207Z,39.24
2017-06-30T12:11:07.540Z,38.75
2017-06-30T12:12:07.567Z,38.83
2017-06-30T12:13:07.600Z,39.04
2017-06-30T12:14:07.631Z,38.73
2017-06-30T12:15:07.655Z,38.83
2017-06-30T12:16:07.683Z,39.22
2017-06-30T12:17:07.713Z,39.03
2017-06-30T12:18:07.742Z,39.32
2017-06-30T12:19:07.771Z,39.22
2017-06-30T12:20:07.803Z,38.83
2017-06-30T12:21:07.836Z,38.93
2017-06-30T12:22:07.857Z,38.83
2017-06-30T12:23:07.589Z,39.41
2017-06-30T12:24:07.911Z,38.93
2017-06-30T12:25:07.951Z,39.12
2017-06-30T12:26:07.979Z,39.9
2017-06-30T12:27:08.009Z,39.7
2017-06-30T12:28:07.721Z,39.8
2017-06-30T12:29:08.060Z,39.69
2017-06-30T12:30:07.780Z,39.69
2017-06-30T12:31:07.818Z,39.59
2017-06-30T12:32:07.845Z,39.59
2017-06-30T12:33:08.182Z,39.59
2017-06-30T12:34:08.209Z,39.39
2017-06-30T12:35:08.243Z,39.78
2017-06-30T12:36:08.272Z,39.22
2017-06-30T12:37:08.309Z,39.22
2017-06-30T12:38:08.335Z,39.22
2017-06-30T12:39:08.051Z,39.61
2017-06-30T12:40:08.400Z,38.85
2017-06-30T12:41:08.432Z,38.85
2017-06-30T12:42:08.458Z,38.09
2017-06-30T12:43:08.173Z,37.99
2017-06-30T12:44:08.515Z,38.01
2017-06-30T12:45:08.546Z,37.82
2017-06-30T12:46:08.580Z,37.64
2017-06-30T12:47:08.601Z,37.06
2017-06-30T12:48:08.637Z,36.69
2017-06-30T12:49:08.354Z,36.88
2017-06-30T12:50:08.696Z,36.69
2017-06-30T12:51:08.730Z,35.93
2017-06-30T12:52:08.449Z,36.41
2017-06-30T12:53:08.799Z,35.93
2017-06-30T12:54:08.520Z,35.61
2017-06-30T12:55:08.548Z,35.42
2017-06-30T12:56:08.892Z,36.3